MROCSKSP

Guest
Details From MROC - San Jose Juan Santamaria Intl
To SKSP - GUSTAVO ROJAS PINILLA
Flight Number -
Tags generated
Created
Modified
Stats Distance 214 nm / 397 km
Max Altitude 19,500 ft / 5,944 m
Waypoints 6
Social Downloads 0
Likes 0
Share VATSIM

Download

Looking for another format? Having issues loading an existing format? Contact us
Advertisement - Login to hide

Notes

Basic altitude profile: - Ascent Rate: 1000ft/min - Ascent Speed: 135kts - Cruise Altitude: 13000ft - Cruise Speed: 190kts - Descent Rate: 700ft/min - Descent Speed: 185kts Options: - Use NATs: yes - Use PACOTS: yes - Use low airways: yes - Use high airways: yes

Route

MROC TIGRE A322 COL UA322 AMUBI A322 SUMKI SKSP

ID Type Via Altitude Latitude Longitude Leg Dist Tot Dist Heading (true) Name
O MROC APT - 0 ft / 0 m 9.99393˚ -84.20888˚ - 0 nm - San Jose Juan Santamaria Intl
TIGRE FIX - 13,700 ft / 4,176 m 10.49333˚ -83.80167˚ 38 nm 38 nm 39° / 39° -
COL NDB A322 (AWY-LO) 19,500 ft / 5,944 m 10.75333˚ -83.58333˚ 20 nm 58 nm 40° / 40° BARRA DEL COLORADO NDB
AMUBI FIX UA322 (AWY-HI) 19,500 ft / 5,944 m 11.61783˚ -82.71653˚ 72 nm 131 nm 44° / 45° -
SUMKI FIX A322 (AWY-LO) 8,500 ft / 2,591 m 12.11278˚ -82.19056˚ 42 nm 174 nm 46° / 46° -
O SKSP APT - 0 ft / 0 m 12.58359˚ -81.71119˚ 39 nm 214 nm 45° / 45° GUSTAVO ROJAS PINILLA

Altitude Profile

Advertisement - Login to hide

Weather


0- 5 10 15 20 25 30 35+ Temperature / ° C

Clouds and Precipitation
Forecast for 2017-12-18 00:00 UTC. Updated 37 minutes ago

Ground ~20,000 ft ~40,000 ft Winds

MROC

Details ICAO MROC (SJO)
Name San Jose Juan Santamaria Intl
Region Costa Rica
Timezone America/Costa_Rica (UTC-6.0)
Stats Elevation 3,021 ft / 921 m (AMSL)
Location 9.993927° -84.208884°
Runways 1
Magnetic Variation 1.720° W

METAR

MROC 172100Z 07021G31KT 9999 FEW040 27/15 A2991 NOSIG

Decode

TAF

Not found

Departure Runways

ID Width Length Bearing (true) Bearing (mag) Surface Threshold Offset Overrun Length
07 151 ft / 46 m 9,994 ft / 3,046 m 68.91° 70.63° Asphalt 0 ft / 0 m 200 ft / 61 m
25 151 ft / 46 m 9,994 ft / 3,046 m 248.92° 250.64° Asphalt 1,969 ft / 600 m 200 ft / 61 m

SKSP

Details ICAO SKSP (ADZ)
Name GUSTAVO ROJAS PINILLA
Region Colombia
Timezone Unknown (UTC+0.0)
Stats Elevation 19 ft / 6 m (AMSL)
Location 12.583595° -81.711191°
Runways 1
Magnetic Variation 3.678° W

METAR

SKSP 172100Z 06016KT 9999 FEW016 SCT200 29/25 A2985

Decode

TAF

Not found

Destination Runways

ID Width Length Bearing (true) Bearing (mag) Surface Threshold Offset Overrun Length
06 148 ft / 45 m 7,815 ft / 2,382 m 59.54° 63.22° Asphalt 0 ft / 0 m 0 ft / 0 m
24 148 ft / 45 m 7,815 ft / 2,382 m 239.55° 243.23° Asphalt 0 ft / 0 m 180 ft / 55 m

Popular Alternatives